^^
Datos históricos de la estación: Murcia-Puente Tocinos
Diario Informe para Enero 20, 2020 Unidades:  Métrico    Ingés   Ambas
Diario Semanal Mensual Anual
  Máxima: Mínima: Promedio:
Temperatura: 9.1 °C 6.6 °C 7.8 °C
Punto de rocio: 7 °C 1.7 °C 5.1 °C
Humedad: 96% 65% 84%
Velocidad viento: 20.9km/h 4.6km/h 10.7km/h
Racha viento: 48.4km/h - -
Viento- - SO
Presión: 1016.7 hPa 1013.5 hPa -
Precipitación: 23.2 mm    
 
 
Tabla de datos para Enero 20, 2020
Hora Temperatura Punto de rocio Presión Viento Velocidad viento Racha viento Humedad Intensidad lluvia(por hora) Nubes
00:04 8.7 °C 4 °C 1015.2 hPa ONO 13.7 km/h 24.1 km/h 72.2% 0.2 mm
00:09 8.7 °C 4.1 °C 1015.3 hPa ONO 13.7 km/h 24.1 km/h 73% 0.2 mm
00:14 8.7 °C 4.1 °C 1015.3 hPa ONO 12.9 km/h 20.9 km/h 73% 0.0 mm
00:19 8.7 °C 4.2 °C 1015.3 hPa ONO 12.2 km/h 18.5 km/h 73.5% 0.0 mm
00:24 8.7 °C 4.3 °C 1015.3 hPa NO 11.2 km/h 26.2 km/h 74.4% 0.0 mm
00:29 8.8 °C 4.3 °C 1015.3 hPa NNO 10.3 km/h 25.7 km/h 73.6% 0.0 mm
00:34 9 °C 4.4 °C 1015.3 hPa NO 11.2 km/h 24.1 km/h 72.6% 0.0 mm
00:39 9 °C 4.4 °C 1015.3 hPa NO 11.9 km/h 20.9 km/h 73.2% 0.0 mm
00:44 8.9 °C 4.5 °C 1015.3 hPa NO 10.7 km/h 17.7 km/h 74% 0.6 mm
00:49 8.9 °C 4.5 °C 1015.3 hPa NO 9.5 km/h 22.2 km/h 74% 0.6 mm
00:54 8.8 °C 4.6 °C 1015.3 hPa ONO 9.5 km/h 22.5 km/h 74.5% 0.6 mm
00:59 8.7 °C 4.6 °C 1015.3 hPa ONO 9.5 km/h 16.1 km/h 75.3% 0.6 mm
01:04 8.6 °C 4.6 °C 1015.3 hPa ONO 9.1 km/h 17.2 km/h 76.1% 0.6 mm
01:09 8.4 °C 4.6 °C 1015.3 hPa ONO 8.7 km/h 17.7 km/h 77% 0.6 mm
01:14 8.3 °C 4.6 °C 1015.3 hPa ONO 9.5 km/h 17.2 km/h 77% 0.6 mm
01:19 8.3 °C 4.6 °C 1015.3 hPa ONO 10.3 km/h 18.5 km/h 77.3% 0.6 mm
01:24 8.3 °C 4.6 °C 1015.3 hPa ONO 10.1 km/h 19.3 km/h 78% 0.6 mm
01:29 8.3 °C 4.6 °C 1015.2 hPa NNO 10 km/h 40.7 km/h 77.3% 0.8 mm
01:34 8.4 °C 4.6 °C 1015.2 hPa NNO 11 km/h 40.2 km/h 76.9% 0.8 mm
01:39 8.6 °C 4.6 °C 1015.2 hPa NNO 11.9 km/h 32.2 km/h 76% 0.8 mm
01:44 8.6 °C 4.4 °C 1015.2 hPa NNO 13.8 km/h 33.3 km/h 75% 0.8 mm
01:49 8.7 °C 4.4 °C 1015.2 hPa NO 15.6 km/h 33.8 km/h 74.5% 0.2 mm
01:54 8.6 °C 4.4 °C 1015.2 hPa NNO 15.2 km/h 33.3 km/h 75% 0.2 mm
01:59 8.7 °C 4.1 °C 1014.9 hPa NNO 14.8 km/h 33.8 km/h 73.2% 0.2 mm
02:04 8.8 °C 4 °C 1014.9 hPa NNO 16.1 km/h 33.5 km/h 72% 0.2 mm
02:09 8.7 °C 4 °C 1014.9 hPa NNO 17.2 km/h 33.8 km/h 72.4% 0.5 mm
02:14 8.7 °C 3.9 °C 1014.9 hPa NNO 15.1 km/h 27.8 km/h 71.6% 0.5 mm
02:19 8.8 °C 3.8 °C 1014.9 hPa NNO 13 km/h 30.6 km/h 71% 0.5 mm
02:24 8.8 °C 3.8 °C 1014.9 hPa NO 13.4 km/h 35.9 km/h 70.9% 0.5 mm
02:29 8.9 °C 3.6 °C 1014.7 hPa NO 13.7 km/h 35.4 km/h 69.4% 0.5 mm
02:34 8.9 °C 3.5 °C 1014.7 hPa NNO 15 km/h 33.8 km/h 69% 0.3 mm
02:39 8.9 °C 3.5 °C 1014.8 hPa NNO 16.1 km/h 33.8 km/h 69.2% 0.3 mm
02:44 8.9 °C 3.5 °C 1014.8 hPa NO 15.4 km/h 33.8 km/h 69% 0.5 mm
02:49 8.9 °C 3.5 °C 1014.8 hPa NNO 14.8 km/h 33.8 km/h 68.9% 0.5 mm
02:54 8.9 °C 3.4 °C 1014.8 hPa NNO 13.9 km/h 33.3 km/h 68.2% 0.5 mm
02:59 8.9 °C 3.3 °C 1014.5 hPa NNO 13 km/h 33.8 km/h 68% 0.5 mm
03:04 8.9 °C 3.3 °C 1014.5 hPa NNO 11.5 km/h 29.6 km/h 67.7% 0.5 mm
03:09 9 °C 3.2 °C 1014.5 hPa NNO 10.3 km/h 29 km/h 67% 0.2 mm
03:14 9.1 °C 3.1 °C 1014.4 hPa NNO 11.7 km/h 29.6 km/h 66.3% 0.2 mm
03:19 9.1 °C 3.2 °C 1014.4 hPa NO 13 km/h 29 km/h 66.4% 0.2 mm
03:24 8.9 °C 3.2 °C 1014.4 hPa NO 12.6 km/h 20.9 km/h 67.2% 0.2 mm
03:29 8.8 °C 3.2 °C 1014.4 hPa NO 12.2 km/h 20.9 km/h 68% 0.5 mm
03:34 8.7 °C 3.1 °C 1014.4 hPa NO 12.1 km/h 20.9 km/h 68% 0.5 mm
03:39 8.8 °C 3.2 °C 1014.6 hPa NNO 11.9 km/h 20.9 km/h 68% 0.5 mm
03:44 8.9 °C 3.2 °C 1014.6 hPa NO 10.1 km/h 20.4 km/h 67.4% 0.5 mm
03:49 8.9 °C 3.1 °C 1014.6 hPa NO 8.4 km/h 21.7 km/h 67% 0.3 mm
03:54 8.6 °C 3.1 °C 1014.6 hPa NO 9.8 km/h 22.5 km/h 68.4% 0.3 mm
03:59 8.3 °C 3 °C 1014.3 hPa NO 11.1 km/h 22.2 km/h 69% 0.3 mm
04:04 8.3 °C 2.9 °C 1014.3 hPa NO 11.7 km/h 22.5 km/h 69% 0.3 mm
04:09 8.3 °C 3 °C 1014.3 hPa NO 12.2 km/h 22.5 km/h 68.9% 0.3 mm
04:14 8.4 °C 3.1 °C 1014.2 hPa NO 12.7 km/h 22.5 km/h 69% 0.8 mm
04:19 8.5 °C 3 °C 1014.2 hPa NO 13 km/h 24.1 km/h 68.4% 0.8 mm
04:24 8.7 °C 2.8 °C 1014.2 hPa NNO 13.4 km/h 37 km/h 66.5% 0.8 mm
04:29 9 °C 2.8 °C 1014.1 hPa NO 13.7 km/h 37 km/h 65.4% 0.8 mm
04:34 8.9 °C 2.9 °C 1014.1 hPa NO 13.7 km/h 24.5 km/h 66% 0.5 mm
04:39 8.7 °C 2.8 °C 1014.1 hPa NO 13.7 km/h 29.6 km/h 66.2% 0.5 mm
04:44 8.5 °C 2.7 °C 1014.0 hPa ONO 14.3 km/h 30.6 km/h 66.8% 0.5 mm
04:49 8.3 °C 2.5 °C 1014.0 hPa NO 14.8 km/h 30.6 km/h 67% 0.5 mm
04:54 8.2 °C 2.5 °C 1014.0 hPa NO 16.6 km/h 30.6 km/h 67.2% 0.5 mm
04:59 8.2 °C 2.4 °C 1013.8 hPa NO 18.4 km/h 30.6 km/h 67% 0.5 mm
05:04 8.1 °C 2.4 °C 1013.8 hPa ONO 18.2 km/h 31.7 km/h 67% 0.5 mm
05:09 8.1 °C 2.2 °C 1013.8 hPa ONO 18 km/h 37 km/h 66.3% 0.7 mm
05:14 8 °C 2.2 °C 1013.7 hPa NO 19.5 km/h 37 km/h 66.7% 0.7 mm
05:19 7.9 °C 2.1 °C 1013.7 hPa ONO 20.9 km/h 31.7 km/h 66.5% 0.2 mm
05:24 8 °C 2.1 °C 1013.8 hPa NO 19.9 km/h 32.2 km/h 66% 0.2 mm
05:29 8 °C 2.1 °C 1013.8 hPa ONO 19 km/h 29.6 km/h 66% 0.2 mm
05:34 8.1 °C 1.9 °C 1013.8 hPa NO 18.5 km/h 33.5 km/h 65.2% 0.2 mm
05:39 8 °C 1.8 °C 1013.8 hPa NO 18 km/h 33.8 km/h 65% 0.2 mm
05:44 7.9 °C 1.8 °C 1013.6 hPa NO 17 km/h 27.4 km/h 65% 0.2 mm
05:49 7.9 °C 1.7 °C 1013.6 hPa ONO 16.1 km/h 27.8 km/h 65% 0.2 mm
05:54 7.9 °C 1.9 °C 1013.8 hPa NO 15 km/h 27.4 km/h 65.6% 0.2 mm
05:59 7.8 °C 1.8 °C 1013.8 hPa ONO 14 km/h 25.9 km/h 65.7% 0.2 mm
06:04 7.8 °C 1.8 °C 1013.8 hPa NO 13.5 km/h 25.7 km/h 66% 0.2 mm
06:09 7.8 °C 1.8 °C 1014.0 hPa NO 13 km/h 20.9 km/h 66% 0.0 mm
06:14 7.8 °C 1.8 °C 1014.0 hPa ONO 13 km/h 20.9 km/h 66% 0.0 mm
06:19 7.8 °C 1.8 °C 1014.0 hPa ONO 13 km/h 25.1 km/h 66% 0.0 mm
06:24 7.9 °C 1.8 °C 1014.0 hPa ONO 13.4 km/h 26.2 km/h 65.4% 0.3 mm
06:29 7.8 °C 1.8 °C 1013.7 hPa ONO 13.7 km/h 25.7 km/h 66.1% 0.3 mm
06:34 7.7 °C 1.9 °C 1013.7 hPa NO 12.3 km/h 22.2 km/h 67% 0.3 mm
06:39 7.6 °C 1.9 °C 1013.7 hPa NNO 11.1 km/h 23.3 km/h 67.5% 0.3 mm
06:44 7.7 °C 2 °C 1013.7 hPa NO 12.1 km/h 24.1 km/h 66.9% 0.3 mm
06:49 7.7 °C 2.1 °C 1013.7 hPa Oeste 13 km/h 22.5 km/h 67.6% 0.3 mm
06:54 7.6 °C 2.4 °C 1013.7 hPa ONO 12 km/h 21.7 km/h 69.7% 0.3 mm
06:59 7.4 °C 2.5 °C 1013.6 hPa Oeste 11.1 km/h 27.8 km/h 71% 0.3 mm
07:04 7.3 °C 2.6 °C 1013.6 hPa ONO 12.7 km/h 27.4 km/h 72% 0.3 mm
07:09 7.2 °C 2.8 °C 1013.6 hPa Oeste 14 km/h 32.3 km/h 73.6% 0.3 mm
07:14 7.2 °C 2.6 °C 1013.5 hPa Oeste 14.8 km/h 35.9 km/h 72.3% 0.3 mm
07:19 7.3 °C 2.8 °C 1013.5 hPa Oeste 15.6 km/h 35.4 km/h 73.2% 0.3 mm
07:24 7 °C 2.9 °C 1013.7 hPa ONO 13.9 km/h 24.5 km/h 74.7% 0.0 mm
07:29 7 °C 2.7 °C 1013.7 hPa ONO 12.2 km/h 31.5 km/h 74.2% 0.3 mm
07:34 7.2 °C 2.5 °C 1013.7 hPa ONO 14.2 km/h 32.2 km/h 72.1% 0.3 mm
07:39 7.4 °C 2.7 °C 1013.7 hPa NO 16.1 km/h 32.2 km/h 72% 0.3 mm
07:44 7.4 °C 2.7 °C 1013.7 hPa NO 14.5 km/h 20.4 km/h 72.1% 0.3 mm
07:49 7.5 °C 3.1 °C 1013.7 hPa NNO 13 km/h 28.2 km/h 73.8% 0.3 mm
07:54 7.8 °C 3.8 °C 1014.2 hPa NNE 12 km/h 29.6 km/h 75.8% 0.3 mm
07:59 8.2 °C 4.2 °C 1014.2 hPa NNE 11.1 km/h 29.6 km/h 76% 0.3 mm
08:04 8.2 °C 4.3 °C 1014.2 hPa NNE 14.9 km/h 29.6 km/h 76% 0.3 mm
08:09 8.3 °C 4.3 °C 1014.3 hPa NNE 18 km/h 48.4 km/h 75.7% 0.3 mm
08:14 8.3 °C 4.1 °C 1014.3 hPa North 16.4 km/h 48.3 km/h 75% 0.3 mm
08:19 8.3 °C 4.2 °C 1014.3 hPa NNE 14.8 km/h 30.6 km/h 75.4% 0.3 mm
08:24 8.3 °C 4.3 °C 1014.3 hPa NNE 15.2 km/h 39.6 km/h 76% 0.5 mm
08:29 8.3 °C 4.3 °C 1014.3 hPa NNE 15.6 km/h 40.2 km/h 76% 0.2 mm
08:34 8.3 °C 4.3 °C 1014.3 hPa NNE 16.8 km/h 35.4 km/h 76% 0.2 mm
08:39 8.3 °C 4.3 °C 1014.5 hPa NNE 18 km/h 34.3 km/h 76% 0.2 mm
08:44 8.3 °C 4.5 °C 1014.5 hPa NNE 17.2 km/h 34.3 km/h 76.7% 0.2 mm
08:49 8.2 °C 4.4 °C 1014.5 hPa NNE 16.4 km/h 34.3 km/h 76.9% 0.2 mm
08:54 8.1 °C 4.4 °C 1014.7 hPa North 14.7 km/h 33.8 km/h 77.4% 0.2 mm
08:59 8.1 °C 4.5 °C 1014.7 hPa NNE 13 km/h 33.8 km/h 78% 0.2 mm
09:04 8.2 °C 4.8 °C 1014.7 hPa NNE 14.7 km/h 32.2 km/h 79% 0.2 mm
09:09 8.2 °C 4.9 °C 1014.8 hPa NNE 16.1 km/h 30.6 km/h 79.7% 0.2 mm
09:14 8.2 °C 4.9 °C 1014.8 hPa North 13.9 km/h 27.4 km/h 80% 0.2 mm
09:19 8 °C 4.7 °C 1014.8 hPa NO 11.9 km/h 20.9 km/h 80% 0.2 mm
09:24 7.7 °C 4.6 °C 1015.2 hPa NNO 11 km/h 20.9 km/h 80.8% 0.2 mm
09:29 7.6 °C 4.6 °C 1015.2 hPa NNO 10.3 km/h 16.4 km/h 81.2% 0.5 mm
09:34 7.5 °C 4.4 °C 1015.2 hPa NNO 7.9 km/h 16.7 km/h 81% 0.5 mm
09:39 7.5 °C 4.4 °C 1015.5 hPa NO 5.8 km/h 16.1 km/h 81% 0.5 mm
09:44 7.6 °C 4.5 °C 1015.5 hPa NO 6.4 km/h 18 km/h 81% 0.5 mm
09:49 7.5 °C 4.6 °C 1015.5 hPa Oeste 6.9 km/h 17.7 km/h 81.6% 0.5 mm
09:54 7.3 °C 4.6 °C 1015.8 hPa Oeste 6.9 km/h 14 km/h 82.6% 0.5 mm
09:59 7.2 °C 4.6 °C 1015.8 hPa OSO 6.9 km/h 14.8 km/h 83.8% 0.5 mm
10:04 7.1 °C 4.7 °C 1015.8 hPa OSO 7.7 km/h 14.5 km/h 85.2% 0.5 mm
10:09 7 °C 4.8 °C 1015.9 hPa OSO 8.4 km/h 13 km/h 86% 0.5 mm
10:14 7 °C 4.9 °C 1015.9 hPa SO 7.9 km/h 13.7 km/h 86% 0.5 mm
10:19 7.1 °C 5 °C 1015.9 hPa SO 7.6 km/h 14.5 km/h 86.9% 0.5 mm
10:24 7.1 °C 5 °C 1016.0 hPa OSO 7.2 km/h 13 km/h 86.6% 0.5 mm
10:29 7.1 °C 4.9 °C 1016.0 hPa OSO 6.9 km/h 12.9 km/h 86% 0.0 mm
10:34 7 °C 4.8 °C 1016.0 hPa SO 7.3 km/h 13.7 km/h 86% 0.3 mm
10:39 6.9 °C 4.7 °C 1016.2 hPa SSO 7.6 km/h 14.5 km/h 86.1% 0.3 mm
10:44 6.9 °C 4.9 °C 1016.2 hPa SSO 6.2 km/h 14.8 km/h 87% 0.3 mm
10:49 6.9 °C 4.9 °C 1016.2 hPa Sur 5 km/h 18.3 km/h 87% 0.3 mm
10:54 6.8 °C 4.8 °C 1016.6 hPa SSE 7.3 km/h 19.3 km/h 87.1% 0.3 mm
10:59 6.7 °C 4.9 °C 1016.6 hPa SSE 9.5 km/h 20.4 km/h 88% 0.3 mm
11:04 6.6 °C 4.9 °C 1016.6 hPa Sur 11.4 km/h 20.9 km/h 88.5% 0.3 mm
11:09 6.7 °C 5 °C 1016.6 hPa Sur 13 km/h 20.9 km/h 89.2% 0.3 mm
11:14 6.7 °C 5.2 °C 1016.5 hPa Sur 10.8 km/h 14.5 km/h 90% 0.3 mm
11:19 6.8 °C 5.3 °C 1016.5 hPa Sur 8.7 km/h 16.7 km/h 90% 0.3 mm
11:24 6.8 °C 5.3 °C 1016.7 hPa Sur 9.4 km/h 16.1 km/h 90.1% 0.3 mm
11:29 6.9 °C 5.6 °C 1016.7 hPa Sur 10 km/h 16.1 km/h 91% 0.5 mm
11:34 7 °C 5.6 °C 1016.7 hPa Sur 9.2 km/h 14.8 km/h 91% 0.2 mm
11:39 7 °C 5.6 °C 1016.7 hPa Sur 8.4 km/h 14.8 km/h 91% 0.2 mm
11:44 7.1 °C 5.7 °C 1016.6 hPa SSO 9.2 km/h 16.7 km/h 91% 0.2 mm
11:49 7.2 °C 5.8 °C 1016.6 hPa SSO 10 km/h 16.1 km/h 91% 0.2 mm
11:54 7.2 °C 5.8 °C 1016.6 hPa SSO 9.2 km/h 13 km/h 91% 0.2 mm
11:59 7.3 °C 6 °C 1016.6 hPa SSO 8.4 km/h 12.9 km/h 91.3% 0.2 mm
12:04 7.4 °C 6.1 °C 1016.6 hPa SSO 7.6 km/h 12.2 km/h 91.4% 0.2 mm
12:09 7.5 °C 6.3 °C 1016.6 hPa SO 6.9 km/h 13 km/h 91.9% 0.2 mm
12:14 7.6 °C 6.2 °C 1016.6 hPa SO 7.3 km/h 13 km/h 91.1% 0.2 mm
12:19 7.5 °C 6.1 °C 1016.6 hPa SO 7.6 km/h 13 km/h 91% 0.5 mm
12:24 7.6 °C 6.2 °C 1016.6 hPa SO 7.6 km/h 15.6 km/h 91% 0.5 mm
12:29 7.6 °C 6.2 °C 1016.4 hPa SO 7.6 km/h 16.1 km/h 90.6% 0.5 mm
12:34 7.6 °C 6 °C 1016.4 hPa SO 8.6 km/h 16.7 km/h 90% 0.3 mm
12:39 7.5 °C 6 °C 1016.4 hPa SO 9.5 km/h 16.1 km/h 90% 0.3 mm
12:44 7.6 °C 6.1 °C 1016.4 hPa SO 8.9 km/h 14.8 km/h 90% 0.3 mm
12:49 7.6 °C 6.1 °C 1016.4 hPa SSO 8.4 km/h 12.9 km/h 90% 0.3 mm
12:54 7.6 °C 6.1 °C 1016.4 hPa SSO 7.6 km/h 15.6 km/h 90% 0.3 mm
12:59 7.6 °C 6 °C 1016.3 hPa SSO 6.9 km/h 16.1 km/h 89.8% 0.3 mm
13:04 7.7 °C 6.1 °C 1016.3 hPa SSO 7.9 km/h 16.1 km/h 90% 0.3 mm
13:09 7.7 °C 6.2 °C 1016.3 hPa Sur 8.7 km/h 18.3 km/h 90% 0.6 mm
13:14 7.7 °C 6.2 °C 1016.2 hPa SSO 9.4 km/h 19.3 km/h 90.2% 0.6 mm
13:19 7.7 °C 6.4 °C 1016.2 hPa SSO 10 km/h 19.3 km/h 91% 0.6 mm
13:24 7.8 °C 6.4 °C 1016.2 hPa SO 9.3 km/h 13 km/h 91% 0.3 mm
13:29 7.8 °C 6.4 °C 1015.9 hPa SSO 8.7 km/h 11.3 km/h 91% 0.3 mm
13:34 7.8 °C 6.5 °C 1015.9 hPa Sur 7.5 km/h 11.9 km/h 91% 0.3 mm
13:39 8 °C 6.6 °C 1015.9 hPa SSO 6.5 km/h 15.6 km/h 91% 0.3 mm
13:44 8 °C 6.6 °C 1015.8 hPa SSO 8.1 km/h 19.8 km/h 91% 0.3 mm
13:49 7.9 °C 6.4 °C 1015.8 hPa SSO 9.5 km/h 24.1 km/h 90.5% 0.3 mm
13:54 7.8 °C 6.3 °C 1015.8 hPa SSO 10.3 km/h 24.1 km/h 90% 0.8 mm
13:59 7.7 °C 6.2 °C 1015.7 hPa SSO 11.1 km/h 24.1 km/h 90% 0.8 mm
14:04 7.6 °C 5.9 °C 1015.7 hPa SSO 12.5 km/h 24.1 km/h 89% 0.8 mm
14:09 7.5 °C 5.8 °C 1015.7 hPa SO 13.7 km/h 24.1 km/h 89.1% 0.5 mm
14:14 7.6 °C 6 °C 1015.7 hPa SSO 12.7 km/h 22.5 km/h 89.8% 0.5 mm
14:19 7.6 °C 6.1 °C 1015.7 hPa SSO 11.9 km/h 20.4 km/h 90% 0.5 mm
14:24 7.6 °C 6.1 °C 1015.7 hPa SSO 11.9 km/h 20.9 km/h 90% 0.5 mm
14:29 7.7 °C 6.1 °C 1015.4 hPa SSO 11.9 km/h 20.9 km/h 90% 5.8 mm
14:34 7.7 °C 6.1 °C 1015.4 hPa SSO 12.5 km/h 20.9 km/h 90% 5.8 mm
14:39 7.7 °C 6.2 °C 1015.4 hPa SO 13 km/h 19.3 km/h 90% 5.8 mm
14:44 7.7 °C 6.2 °C 1015.4 hPa SSO 11.2 km/h 16.1 km/h 90% 6.0 mm
14:49 7.7 °C 6.2 °C 1015.4 hPa SSO 9.5 km/h 17.2 km/h 90% 6.0 mm
14:54 7.7 °C 6.2 °C 1015.4 hPa SO 10.3 km/h 19 km/h 90% 6.0 mm
14:59 7.7 °C 6.3 °C 1015.3 hPa SO 11.1 km/h 20.9 km/h 90.5% 5.5 mm
15:04 7.7 °C 6.3 °C 1015.3 hPa SO 11.1 km/h 22.2 km/h 91% 5.5 mm
15:09 7.7 °C 6.3 °C 1015.3 hPa SSO 11.1 km/h 22.5 km/h 91% 5.5 mm
15:14 7.7 °C 6.3 °C 1015.0 hPa SSO 11.1 km/h 19.3 km/h 91% 5.5 mm
15:19 7.7 °C 6.3 °C 1015.0 hPa SSO 11.1 km/h 21.7 km/h 91% 5.5 mm
15:24 7.7 °C 6.3 °C 1015.0 hPa SSO 11.1 km/h 22.5 km/h 91% 5.5 mm
15:29 7.7 °C 6.3 °C 1015.0 hPa SSO 11.1 km/h 22.5 km/h 91% 0.2 mm
15:34 7.7 °C 6.3 °C 1015.0 hPa SSO 10.3 km/h 20.4 km/h 91% 0.5 mm
15:39 7.7 °C 6.3 °C 1015.0 hPa SSO 9.5 km/h 20.9 km/h 91% 0.5 mm
15:44 7.6 °C 6.4 °C 1014.9 hPa SSO 10.3 km/h 17.7 km/h 91.8% 0.5 mm
15:49 7.7 °C 6.5 °C 1014.9 hPa Sur 11.1 km/h 19 km/h 92% 0.3 mm
15:54 7.6 °C 6.4 °C 1014.9 hPa SSO 11.1 km/h 20.4 km/h 92% 0.3 mm
15:59 7.6 °C 6.4 °C 1014.8 hPa SSO 11.1 km/h 20.9 km/h 92% 0.3 mm
16:04 7.6 °C 6.4 °C 1014.8 hPa SSO 11.1 km/h 24.1 km/h 92% 0.3 mm
16:09 7.6 °C 6.4 °C 1014.8 hPa Sur 11.1 km/h 24.1 km/h 92% 0.3 mm
16:14 7.7 °C 6.5 °C 1014.7 hPa OSO 10.7 km/h 17.7 km/h 92% 0.3 mm
16:19 7.7 °C 6.5 °C 1014.7 hPa SO 10.3 km/h 16.1 km/h 92% 0.3 mm
16:24 7.7 °C 6.5 °C 1014.7 hPa SO 8 km/h 14.5 km/h 92% 0.3 mm
16:29 7.8 °C 6.6 °C 1014.7 hPa OSO 5.8 km/h 15.6 km/h 92% 0.5 mm
16:34 7.8 °C 6.6 °C 1014.7 hPa SSO 7.1 km/h 20.4 km/h 92% 0.2 mm
16:39 7.8 °C 6.6 °C 1014.7 hPa Sur 8.4 km/h 20.9 km/h 92% 0.2 mm
16:44 7.9 °C 6.7 °C 1014.6 hPa SSO 10.8 km/h 20.9 km/h 92% 0.2 mm
16:49 8 °C 6.7 °C 1014.6 hPa SSO 13 km/h 19.3 km/h 92% 0.2 mm
16:54 8.1 °C 6.9 °C 1014.6 hPa SSO 12 km/h 19.3 km/h 92% 0.2 mm
16:59 8.2 °C 6.8 °C 1014.5 hPa SO 11.1 km/h 17.7 km/h 91.4% 0.2 mm
17:04 8.2 °C 6.8 °C 1014.5 hPa SO 9.6 km/h 14.5 km/h 91% 0.2 mm
17:09 8.2 °C 6.8 °C 1014.5 hPa SSO 8.4 km/h 12.9 km/h 91% 0.2 mm
17:14 8.2 °C 6.8 °C 1014.2 hPa ESE 8.4 km/h 29.6 km/h 90.6% 0.5 mm
17:19 8 °C 6.5 °C 1014.2 hPa Sur 8.4 km/h 31.5 km/h 90% 0.5 mm
17:24 7.9 °C 6.3 °C 1015.0 hPa Sur 12.9 km/h 32.2 km/h 90% 0.5 mm
17:29 7.8 °C 6.4 °C 1015.0 hPa SSO 17.2 km/h 19.3 km/h 90.9% 0.5 mm
17:34 7.8 °C 6.4 °C 1015.0 hPa SSO 14 km/h 19.3 km/h 91% 0.3 mm
17:39 7.8 °C 6.4 °C 1015.0 hPa SSO 11.1 km/h 14.5 km/h 91.2% 0.3 mm
17:44 7.7 °C 6.5 °C 1014.8 hPa SSE 9.2 km/h 13 km/h 92% 0.3 mm
17:49 7.8 °C 6.6 °C 1014.8 hPa SSE 7.6 km/h 12.9 km/h 92% 0.3 mm
17:54 7.7 °C 6.5 °C 1015.2 hPa Sur 7.2 km/h 11.3 km/h 92% 0.3 mm
17:59 7.7 °C 6.5 °C 1015.2 hPa Sur 6.9 km/h 11.3 km/h 92% 0.3 mm
18:04 7.7 °C 6.6 °C 1015.2 hPa SSO 7.2 km/h 12.2 km/h 92.4% 0.3 mm
18:09 7.6 °C 6.6 °C 1015.2 hPa SSO 7.6 km/h 13 km/h 93% 0.8 mm
18:14 7.6 °C 6.6 °C 1014.9 hPa SSE 7.6 km/h 11.3 km/h 93% 0.8 mm
18:19 7.6 °C 6.6 °C 1014.9 hPa Sur 7.6 km/h 11.9 km/h 93% 0.5 mm
18:24 7.6 °C 6.7 °C 1015.1 hPa SSO 7.6 km/h 11.3 km/h 93.8% 0.5 mm
18:29 7.6 °C 6.7 °C 1015.1 hPa Sur 7.6 km/h 12.2 km/h 94% 0.5 mm
18:34 7.6 °C 6.7 °C 1015.1 hPa SSE 7.6 km/h 13 km/h 94% 0.5 mm
18:39 7.6 °C 6.7 °C 1015.3 hPa SSO 7.6 km/h 13.7 km/h 94% 0.5 mm
18:44 7.5 °C 6.6 °C 1015.3 hPa SSE 8 km/h 14.8 km/h 94% 0.5 mm
18:49 7.5 °C 6.6 °C 1015.3 hPa Sur 8.4 km/h 14.8 km/h 94% 0.5 mm
18:54 7.5 °C 6.6 °C 1015.5 hPa Sur 8.5 km/h 14.5 km/h 94% 0.5 mm
18:59 7.5 °C 6.6 °C 1015.5 hPa SSE 8.7 km/h 15.6 km/h 94% 0.5 mm
19:04 7.4 °C 6.5 °C 1015.5 hPa SSE 9.1 km/h 16.1 km/h 94% 0.5 mm
19:09 7.4 °C 6.7 °C 1016.0 hPa SE 9.5 km/h 14.5 km/h 94.9% 0.7 mm
19:14 7.5 °C 6.8 °C 1016.0 hPa SE 8.9 km/h 13 km/h 95% 0.2 mm
19:19 7.4 °C 6.7 °C 1016.0 hPa Sur 8.4 km/h 13.7 km/h 95% 0.2 mm
19:24 7.4 °C 6.7 °C 1016.0 hPa SO 8 km/h 14.5 km/h 95% 0.2 mm
19:29 7.4 °C 6.7 °C 1016.0 hPa OSO 7.6 km/h 11.3 km/h 95% 0.2 mm
19:34 7.4 °C 6.7 °C 1016.0 hPa OSO 6.2 km/h 9.7 km/h 95% 0.2 mm
19:39 7.5 °C 6.8 °C 1016.1 hPa OSO 5 km/h 9.3 km/h 95% 0.2 mm
19:44 7.6 °C 6.8 °C 1016.1 hPa SO 4.8 km/h 9.7 km/h 95% 0.2 mm
19:49 7.6 °C 6.8 °C 1016.1 hPa SSO 4.6 km/h 9.3 km/h 95% 0.2 mm
19:54 7.7 °C 6.9 °C 1016.1 hPa SSO 5.2 km/h 9.7 km/h 95% 0.2 mm
19:59 7.7 °C 6.9 °C 1016.1 hPa SSO 5.8 km/h 9.7 km/h 95% 0.2 mm
20:04 7.7 °C 6.9 °C 1016.1 hPa SSO 5.8 km/h 10.3 km/h 95% 0.5 mm
20:09 7.7 °C 6.9 °C 1016.1 hPa SSO 5.8 km/h 11.9 km/h 95% 0.3 mm
20:14 7.6 °C 6.9 °C 1016.1 hPa SO 6.4 km/h 11.3 km/h 95% 9.7 mm
20:18 7.6 °C 6.8 °C 1016.1 hPa SO 6.9 km/h 9.7 km/h 95% 9.7 mm
20:29 7.7 °C 6.9 °C 1016.1 hPa SSE 5.8 km/h 9.5 km/h 95% 9.7 mm
20:34 7.6 °C 6.9 °C 1016.1 hPa Sur 6.3 km/h 11.1 km/h 95% 9.7 mm
20:39 7.6 °C 6.8 °C 1016.3 hPa SSO 6.9 km/h 13.7 km/h 95% 9.7 mm
20:44 7.6 °C 6.8 °C 1016.3 hPa Sur 7.6 km/h 14.5 km/h 95% 9.7 mm
20:49 7.6 °C 6.9 °C 1016.3 hPa SSO 8.4 km/h 11.9 km/h 95.5% 9.7 mm
20:54 7.6 °C 7 °C 1016.3 hPa Sur 8 km/h 11.9 km/h 95.8% 9.7 mm
20:59 7.6 °C 7 °C 1016.3 hPa Sur 7.6 km/h 13.7 km/h 96% 9.7 mm
21:04 7.6 °C 7 °C 1016.3 hPa SSO 8 km/h 14.5 km/h 96% 10.0 mm
21:09 7.6 °C 7 °C 1016.3 hPa Sur 8.4 km/h 12.9 km/h 96% 10.0 mm
21:14 7.5 °C 6.9 °C 1016.3 hPa SO 7.7 km/h 11.3 km/h 96% 10.0 mm
21:19 7.5 °C 6.9 °C 1016.3 hPa SO 6.9 km/h 11.3 km/h 96% 9.7 mm
21:24 7.5 °C 6.9 °C 1016.4 hPa Sur 6.7 km/h 11.3 km/h 96% 9.7 mm
21:29 7.6 °C 6.9 °C 1016.4 hPa Sur 6.5 km/h 10 km/h 96% 0.3 mm
21:34 7.6 °C 7 °C 1016.4 hPa SSO 6.2 km/h 11.1 km/h 96% 0.3 mm
21:39 7.6 °C 7 °C 1016.4 hPa SSO 5.8 km/h 13 km/h 96% 0.3 mm
21:44 7.5 °C 6.9 °C 1016.3 hPa SSO 6.5 km/h 13 km/h 96% 0.3 mm
21:49 7.5 °C 6.9 °C 1016.3 hPa Sur 7.6 km/h 13 km/h 96% 0.3 mm
21:54 7.5 °C 6.9 °C 1016.4 hPa Sur 7.9 km/h 12.9 km/h 96% 0.3 mm
21:59 7.5 °C 6.9 °C 1016.4 hPa SSO 8.4 km/h 13 km/h 96% 0.3 mm
22:04 7.4 °C 6.8 °C 1016.4 hPa SSO 8.4 km/h 12.9 km/h 96% 0.3 mm
22:09 7.4 °C 6.8 °C 1016.4 hPa SSO 8.4 km/h 13 km/h 96% 0.3 mm
22:14 7.4 °C 6.8 °C 1016.3 hPa SSO 8 km/h 13 km/h 96% 0.3 mm
22:19 7.4 °C 6.8 °C 1016.3 hPa SSO 7.6 km/h 15.6 km/h 96% 0.3 mm
22:24 7.5 °C 6.8 °C 1016.3 hPa Sur 8.1 km/h 16.1 km/h 96% 0.3 mm
22:29 7.5 °C 6.9 °C 1016.3 hPa Sur 8.7 km/h 13.7 km/h 96% 0.3 mm
22:34 7.5 °C 6.9 °C 1016.3 hPa Sur 9 km/h 14.8 km/h 96% 0.3 mm
22:39 7.4 °C 6.8 °C 1016.3 hPa SSO 9.5 km/h 14.5 km/h 96% 0.3 mm
22:44 7.4 °C 6.8 °C 1016.2 hPa SSO 9.5 km/h 14.8 km/h 96% 0.3 mm
22:49 7.4 °C 6.8 °C 1016.2 hPa Sur 9.5 km/h 14.5 km/h 96% 0.3 mm
22:54 7.5 °C 6.9 °C 1016.4 hPa Sur 9 km/h 11.3 km/h 96% 0.3 mm
22:59 7.5 °C 6.9 °C 1016.4 hPa SO 8.4 km/h 11.3 km/h 96% 0.8 mm
23:04 7.5 °C 6.9 °C 1016.4 hPa SO 8.4 km/h 13 km/h 96% 0.5 mm
23:09 7.6 °C 7 °C 1016.4 hPa SSO 8.4 km/h 13 km/h 96% 0.5 mm
23:14 7.6 °C 7 °C 1016.0 hPa Sur 8.5 km/h 13 km/h 96% 0.5 mm
23:19 7.6 °C 7 °C 1016.0 hPa SSO 8.7 km/h 14.8 km/h 96% 0.5 mm
23:24 7.6 °C 7 °C 1016.0 hPa SO 8.6 km/h 14.5 km/h 96% 0.5 mm
23:29 7.6 °C 7 °C 1016.0 hPa SSO 8.4 km/h 13 km/h 96% 0.5 mm
23:34 7.6 °C 7 °C 1016.0 hPa SSO 7.7 km/h 14.8 km/h 96% 0.5 mm
23:39 7.6 °C 6.9 °C 1016.0 hPa SSO 6.9 km/h 14.8 km/h 95.3% 0.5 mm
23:44 7.6 °C 6.8 °C 1015.9 hPa SSO 8 km/h 16.7 km/h 95% 0.5 mm
23:49 7.6 °C 6.8 °C 1015.9 hPa SSO 9.5 km/h 16.7 km/h 95% 0.5 mm
23:54 7.7 °C 6.9 °C 1015.9 hPa SSO 9.2 km/h 16.1 km/h 95% 0.5 mm
23:59 7.7 °C 6.9 °C 1015.8 hPa SSO 8.7 km/h 12.9 km/h 95% 0.7 mm
Murcia-Puente Tocinos, España
Compliments of Weather Underground - 3 mb

La estación de MeteoMurcia.com, publica sus datos en los siguientes proyectos:

Weather Underground PWS IMURCIAP2 Meteoclimatic www.awekas.at

W3Counter
Web Analytics